Tidworth, United Kingdom
Current Conditions -  °F | °C
As of 7:50 PM on Friday 19 Dec 2014 (Local Time) from EGDM Reporting Station
Clear Clear  
Wind Chill: 35°   Ceiling: Unl
Heat Index: 41°   Visibility: 6mi
Dew Point: 36°   Wind: 9mph
Humidity: 81%   Direction: 240°WSW
Pressure: 30.21"   Gusts: NA
Location:  51.23°N, 1.67°W
Report Text: EGDM 191950Z AUTO 24008KT 9999 NCD 05/02 Q1023
Loading
Personal Weather Stations






























Interactive Weather Map New forecast layout! Learn more

10-Day Weather Forecast

Advertisements
Track Severe Weather on mobile